Johannesburg, MI

9:04 PM EDT on August 29, 2014 (GMT -0400)
Harbor Springs | Change Station
CLOSE
Current Station
Airport
Location: Harbor Springs,
Elevation: 686 ft
Nearby Weather Stations

Elev 686 ft 45.43 °N, 84.91 °W | Updated 9 minutes ago

Clear
Clear
71 °F
Feels Like 71 °F
N
0
Wind Variable Wind from North

Today
High -- | Low -- °F
--% Chance of Precip.
Yesterday
High -- | Low -- °F
Precip. -- in
6:56 AM 8:20 PM
Waxing Crescent, 18% visible
Pressure 29.90 in
Visibility 10.0 miles
Clouds Clear
Dew Point 63 °F
Humidity 76%
Rainfall 0.00 in
Snow Depth Not available.
UV 0 out of 12
Pollen 6.30 out of 12
Ozone Good
PM2.5 Good
Flu Activity Not available.
METAR KMGN 300055Z AUTO 00000KT 10SM CLR 21/17 A2990 RMK AO2 T02160172

More Conditions Fewer Conditions

Pressure 29.90 in
Visibility 10.0 miles
Clouds Clear
Dew Point 63 °F
Humidity 76%
Rainfall 0.00 in
Snow Depth Not available.
UV 0 out of 12
Pollen 6.30 out of 12
Ozone Good
PM2.5 Good
Flu Activity Not available.
METAR KMGN 300055Z AUTO 00000KT 10SM CLR 21/17 A2990 RMK AO2 T02160172

More Conditions Fewer Conditions

Nowcast | as of 9:00 PM EDT on August 29, 2014

At 10 PM...mostly cloudy. Chance of thunderstorms. Temperature 67. South winds 14 mph. At 12 am...mostly cloudy. Chance of thunderstorms. Temperature 66. South winds 13 mph. At 2 am...mostly cloudy. Patchy fog. Chance of thunderstorms. Temperature 67. South winds 14 mph. At 4 am...cloudy. Patchy fog. Chance of thunderstorms. Temperature 66. South winds 13 mph.

×

10-Day Weather Forecast

Almanac

Astronomy

Aug. 29, 2014 Rise Set
Actual Time 6:56 AM EDT 8:20 PM EDT
Civil Twilight 6:25 AM EDT 8:50 PM EDT
Nautical Twilight 5:48 AM EDT 9:27 PM EDT
Astronomical Twilight 5:09 AM EDT 10:06 PM EDT
Moon 10:56 AM EDT (8/29) 10:04 PM EDT (8/29)
Length of Visible Light 14h 24m
Length of Day
13h 24m
Tomorrow will be 3m 0s shorter.
Waxing Crescent, 18% of the Moon is Illuminated
Today
Waxing Crescent
Sep 2
First Quarter
Sep 8
Full
Sep 15
Last Quarter
Sep 24
New

Today's Extremes

State Highs State Lows

Community

WunderPhotos

Upload Photos

1,748,394 photos uploaded!

Nearby

Air Quality

  Air Quality AQ Index Pollutant
Yesterday Good
OZONE
Yesterday Good
PM2.5
Current Good
PM2.5
Current Good
OZONE
Friday Good
OZONE
Friday Good
PM2.5
Saturday Good
OZONE
Saturday Good
PM2.5
Sunday Good
OZONE
Sunday Good
PM2.5
Monday Good
OZONE
Monday Good
PM2.5
Tuesday Good
OZONE
Tuesday Good
PM2.5

Snow Depth

Station Depth Elevation
No new snow has been reported.

Earthquake Activity

City Distance Mag. Time & Date
No recent earthquake activity has been reported nearby.
Minimum magnitude displayed is 2.5.

Coastal Water Temperatures

Place Temperature
No Stations Reporting

Nearby Weather Stations